KDFW

Dallas-Fort Worth International Airport

Dallas-Fort Worth, Texas, USA
METAR KDFW 181953Z 00000KT 2 1/2SM BR OVC006 12/09 A3013 RMK AO2 SFC VIS 5 SLP199 T01170094
Observed Flight Rules
Dec-18 @ 19:53 UTC (23 minutes ago) Instrument Flight Rules
Wind Visibility Clouds Conditions
Calm 2 1/2 miles
  • Overcast at 600' AGL
  • Mist
Temperatures Readings
Current 12°C / 54°F
Dewpoint 9°C / 48°F
Humidity 82%
Altimeter 30.13" Hg
Pressure 1019.9 hPa
Elevation 174
METAR KDFW 181953Z 00000KT 2 1/2SM BR OVC006 12/09 A3013 RMK AO2 SFC VIS 5 SLP199 T01170094
Observed Flight Rules
Dec-18 @ 19:53 UTC
(23 minutes ago)
IFR
Wind Visibility
Calm 2 1/2 miles
Clouds
  • Overcast at 600' AGL
Conditions
  • Mist
Temperature Dewpoint
12°C / 54°F 9°C / 48°F
Humidity Altimeter Pressure
82% 30.13" Hg 1019.9 hPa